sensor_id;sensor_type;location;lat;lon;timestamp;P1;durP1;ratioP1;P2;durP2;ratioP2
3801;SDS011;1916;51.798;12.246;2023-07-29T00:01:49;9.37;;;7.50;;
3801;SDS011;1916;51.798;12.246;2023-07-29T00:03:51;9.00;;;7.13;;
3801;SDS011;1916;51.798;12.246;2023-07-29T00:05:53;9.43;;;7.50;;
3801;SDS011;1916;51.798;12.246;2023-07-29T00:07:55;8.80;;;7.87;;
3801;SDS011;1916;51.798;12.246;2023-07-29T00:09:57;10.10;;;7.97;;
3801;SDS011;1916;51.798;12.246;2023-07-29T00:12:00;9.10;;;7.57;;
3801;SDS011;1916;51.798;12.246;2023-07-29T00:14:02;7.33;;;6.60;;
3801;SDS011;1916;51.798;12.246;2023-07-29T00:16:04;13.80;;;7.57;;
3801;SDS011;1916;51.798;12.246;2023-07-29T00:18:08;8.43;;;7.10;;
3801;SDS011;1916;51.798;12.246;2023-07-29T00:20:10;9.60;;;7.33;;
3801;SDS011;1916;51.798;12.246;2023-07-29T00:22:12;8.33;;;7.40;;
3801;SDS011;1916;51.798;12.246;2023-07-29T00:24:14;12.67;;;7.27;;
3801;SDS011;1916;51.798;12.246;2023-07-29T00:26:16;8.33;;;7.40;;
3801;SDS011;1916;51.798;12.246;2023-07-29T00:28:18;11.43;;;7.50;;
3801;SDS011;1916;51.798;12.246;2023-07-29T00:30:24;7.30;;;6.40;;
3801;SDS011;1916;51.798;12.246;2023-07-29T00:32:29;11.60;;;7.60;;
3801;SDS011;1916;51.798;12.246;2023-07-29T00:34:31;10.23;;;7.00;;
3801;SDS011;1916;51.798;12.246;2023-07-29T00:36:34;9.80;;;7.23;;
3801;SDS011;1916;51.798;12.246;2023-07-29T00:38:36;6.80;;;6.10;;
3801;SDS011;1916;51.798;12.246;2023-07-29T00:40:39;9.33;;;6.70;;
3801;SDS011;1916;51.798;12.246;2023-07-29T00:42:41;9.13;;;7.97;;
3801;SDS011;1916;51.798;12.246;2023-07-29T00:44:44;10.23;;;7.07;;
3801;SDS011;1916;51.798;12.246;2023-07-29T00:46:46;8.53;;;5.90;;
3801;SDS011;1916;51.798;12.246;2023-07-29T00:48:51;9.03;;;5.77;;
3801;SDS011;1916;51.798;12.246;2023-07-29T00:50:54;8.10;;;7.07;;
3801;SDS011;1916;51.798;12.246;2023-07-29T00:52:56;6.93;;;6.23;;
3801;SDS011;1916;51.798;12.246;2023-07-29T00:54:58;9.10;;;6.07;;
3801;SDS011;1916;51.798;12.246;2023-07-29T00:57:00;8.00;;;5.60;;
3801;SDS011;1916;51.798;12.246;2023-07-29T00:59:03;8.30;;;6.00;;
3801;SDS011;1916;51.798;12.246;2023-07-29T01:01:06;6.20;;;5.60;;
3801;SDS011;1916;51.798;12.246;2023-07-29T01:03:08;5.73;;;5.10;;
3801;SDS011;1916;51.798;12.246;2023-07-29T01:05:11;5.83;;;5.23;;
3801;SDS011;1916;51.798;12.246;2023-07-29T01:07:21;10.63;;;4.90;;
3801;SDS011;1916;51.798;12.246;2023-07-29T01:16:41;4.30;;;3.90;;
3801;SDS011;1916;51.798;12.246;2023-07-29T01:18:47;6.47;;;3.63;;
3801;SDS011;1916;51.798;12.246;2023-07-29T01:20:51;4.40;;;3.93;;
3801;SDS011;1916;51.798;12.246;2023-07-29T01:22:56;3.70;;;3.30;;
3801;SDS011;1916;51.798;12.246;2023-07-29T01:24:59;4.27;;;3.80;;
3801;SDS011;1916;51.798;12.246;2023-07-29T01:27:01;3.33;;;3.07;;
3801;SDS011;1916;51.798;12.246;2023-07-29T01:29:05;4.00;;;3.20;;
3801;SDS011;1916;51.798;12.246;2023-07-29T01:31:12;3.20;;;2.90;;
3801;SDS011;1916;51.798;12.246;2023-07-29T01:33:28;3.30;;;3.00;;
3801;SDS011;1916;51.798;12.246;2023-07-29T01:35:42;4.73;;;3.37;;
3801;SDS011;1916;51.798;12.246;2023-07-29T01:37:48;3.70;;;3.37;;
3801;SDS011;1916;51.798;12.246;2023-07-29T01:39:52;3.37;;;3.07;;
3801;SDS011;1916;51.798;12.246;2023-07-29T01:41:56;2.67;;;2.47;;
3801;SDS011;1916;51.798;12.246;2023-07-29T01:43:59;3.90;;;2.93;;
3801;SDS011;1916;51.798;12.246;2023-07-29T01:46:01;2.80;;;2.60;;
3801;SDS011;1916;51.798;12.246;2023-07-29T01:48:04;3.07;;;2.77;;
3801;SDS011;1916;51.798;12.246;2023-07-29T01:50:08;3.13;;;2.70;;
3801;SDS011;1916;51.798;12.246;2023-07-29T01:52:11;2.93;;;2.63;;
3801;SDS011;1916;51.798;12.246;2023-07-29T01:54:14;3.03;;;2.73;;
3801;SDS011;1916;51.798;12.246;2023-07-29T01:56:16;3.37;;;3.07;;
3801;SDS011;1916;51.798;12.246;2023-07-29T01:58:26;2.90;;;2.70;;
3801;SDS011;1916;51.798;12.246;2023-07-29T02:00:29;3.10;;;2.80;;
3801;SDS011;1916;51.798;12.246;2023-07-29T02:02:32;3.63;;;2.80;;
3801;SDS011;1916;51.798;12.246;2023-07-29T02:04:34;2.70;;;2.50;;
3801;SDS011;1916;51.798;12.246;2023-07-29T02:06:36;4.10;;;2.60;;
3801;SDS011;1916;51.798;12.246;2023-07-29T02:08:40;2.93;;;2.73;;
3801;SDS011;1916;51.798;12.246;2023-07-29T02:10:44;2.57;;;2.37;;
3801;SDS011;1916;51.798;12.246;2023-07-29T02:12:47;3.83;;;2.70;;
3801;SDS011;1916;51.798;12.246;2023-07-29T02:14:49;2.60;;;2.40;;
3801;SDS011;1916;51.798;12.246;2023-07-29T02:16:52;2.60;;;2.40;;
3801;SDS011;1916;51.798;12.246;2023-07-29T02:18:55;4.30;;;2.50;;
3801;SDS011;1916;51.798;12.246;2023-07-29T02:20:58;3.90;;;2.80;;
3801;SDS011;1916;51.798;12.246;2023-07-29T02:23:00;3.50;;;2.37;;
3801;SDS011;1916;51.798;12.246;2023-07-29T02:25:03;2.67;;;2.47;;
3801;SDS011;1916;51.798;12.246;2023-07-29T02:27:06;2.70;;;2.50;;
3801;SDS011;1916;51.798;12.246;2023-07-29T02:29:09;3.40;;;2.60;;
3801;SDS011;1916;51.798;12.246;2023-07-29T02:31:14;2.80;;;2.60;;
3801;SDS011;1916;51.798;12.246;2023-07-29T02:33:22;2.87;;;2.67;;
3801;SDS011;1916;51.798;12.246;2023-07-29T02:35:24;4.63;;;2.80;;
3801;SDS011;1916;51.798;12.246;2023-07-29T02:37:27;3.00;;;2.70;;
3801;SDS011;1916;51.798;12.246;2023-07-29T02:39:29;2.70;;;2.50;;
3801;SDS011;1916;51.798;12.246;2023-07-29T02:41:32;3.07;;;2.80;;
3801;SDS011;1916;51.798;12.246;2023-07-29T02:43:35;2.90;;;2.70;;
3801;SDS011;1916;51.798;12.246;2023-07-29T02:45:37;3.30;;;3.00;;
3801;SDS011;1916;51.798;12.246;2023-07-29T02:47:39;3.30;;;3.00;;
3801;SDS011;1916;51.798;12.246;2023-07-29T02:49:42;3.10;;;2.80;;
3801;SDS011;1916;51.798;12.246;2023-07-29T02:51:44;2.90;;;2.70;;
3801;SDS011;1916;51.798;12.246;2023-07-29T02:53:46;2.90;;;2.60;;
3801;SDS011;1916;51.798;12.246;2023-07-29T02:55:48;3.20;;;2.90;;
3801;SDS011;1916;51.798;12.246;2023-07-29T02:57:51;2.80;;;2.60;;
3801;SDS011;1916;51.798;12.246;2023-07-29T02:59:53;2.87;;;2.67;;
3801;SDS011;1916;51.798;12.246;2023-07-29T03:01:55;3.17;;;2.87;;
3801;SDS011;1916;51.798;12.246;2023-07-29T03:03:58;3.60;;;3.20;;
3801;SDS011;1916;51.798;12.246;2023-07-29T03:06:04;4.07;;;3.10;;
3801;SDS011;1916;51.798;12.246;2023-07-29T03:08:08;2.70;;;2.50;;
3801;SDS011;1916;51.798;12.246;2023-07-29T03:10:10;3.43;;;3.13;;
3801;SDS011;1916;51.798;12.246;2023-07-29T03:12:13;4.20;;;3.40;;
3801;SDS011;1916;51.798;12.246;2023-07-29T03:14:15;3.53;;;3.00;;
3801;SDS011;1916;51.798;12.246;2023-07-29T03:16:17;3.63;;;3.27;;
3801;SDS011;1916;51.798;12.246;2023-07-29T03:18:31;4.33;;;3.03;;
3801;SDS011;1916;51.798;12.246;2023-07-29T03:20:34;3.20;;;2.90;;
3801;SDS011;1916;51.798;12.246;2023-07-29T03:22:38;3.10;;;2.80;;
3801;SDS011;1916;51.798;12.246;2023-07-29T03:24:41;3.40;;;2.97;;
3801;SDS011;1916;51.798;12.246;2023-07-29T03:26:44;4.00;;;3.63;;
3801;SDS011;1916;51.798;12.246;2023-07-29T03:28:47;3.50;;;2.83;;
3801;SDS011;1916;51.798;12.246;2023-07-29T03:30:49;3.37;;;3.07;;
3801;SDS011;1916;51.798;12.246;2023-07-29T03:32:52;4.03;;;2.90;;
3801;SDS011;1916;51.798;12.246;2023-07-29T03:34:54;5.03;;;3.30;;
3801;SDS011;1916;51.798;12.246;2023-07-29T03:36:57;3.17;;;2.87;;
3801;SDS011;1916;51.798;12.246;2023-07-29T03:39:00;3.13;;;2.83;;
3801;SDS011;1916;51.798;12.246;2023-07-29T03:41:07;3.40;;;2.80;;
3801;SDS011;1916;51.798;12.246;2023-07-29T03:43:10;3.10;;;2.80;;
3801;SDS011;1916;51.798;12.246;2023-07-29T03:45:12;3.17;;;2.87;;
3801;SDS011;1916;51.798;12.246;2023-07-29T03:47:15;3.43;;;2.80;;
3801;SDS011;1916;51.798;12.246;2023-07-29T03:49:18;4.03;;;2.90;;
3801;SDS011;1916;51.798;12.246;2023-07-29T03:51:20;2.77;;;2.57;;
3801;SDS011;1916;51.798;12.246;2023-07-29T03:53:23;3.50;;;3.10;;
3801;SDS011;1916;51.798;12.246;2023-07-29T03:55:25;3.00;;;2.80;;
3801;SDS011;1916;51.798;12.246;2023-07-29T03:57:28;3.20;;;2.50;;
3801;SDS011;1916;51.798;12.246;2023-07-29T03:59:31;3.20;;;2.90;;
3801;SDS011;1916;51.798;12.246;2023-07-29T04:01:34;4.50;;;2.93;;
3801;SDS011;1916;51.798;12.246;2023-07-29T04:03:36;3.97;;;3.57;;
3801;SDS011;1916;51.798;12.246;2023-07-29T04:05:39;3.60;;;3.30;;
3801;SDS011;1916;51.798;12.246;2023-07-29T04:07:41;3.43;;;3.13;;
3801;SDS011;1916;51.798;12.246;2023-07-29T04:09:43;3.20;;;3.00;;
3801;SDS011;1916;51.798;12.246;2023-07-29T04:11:46;3.63;;;3.30;;
3801;SDS011;1916;51.798;12.246;2023-07-29T04:13:48;3.77;;;3.37;;
3801;SDS011;1916;51.798;12.246;2023-07-29T04:15:50;3.10;;;2.80;;
3801;SDS011;1916;51.798;12.246;2023-07-29T04:17:52;3.60;;;3.30;;
3801;SDS011;1916;51.798;12.246;2023-07-29T04:19:55;5.03;;;2.90;;
3801;SDS011;1916;51.798;12.246;2023-07-29T04:22:02;3.60;;;3.30;;
3801;SDS011;1916;51.798;12.246;2023-07-29T04:24:04;2.83;;;2.63;;
3801;SDS011;1916;51.798;12.246;2023-07-29T04:26:06;3.80;;;3.50;;
3801;SDS011;1916;51.798;12.246;2023-07-29T04:28:09;3.43;;;3.13;;
3801;SDS011;1916;51.798;12.246;2023-07-29T04:30:11;4.20;;;2.70;;
3801;SDS011;1916;51.798;12.246;2023-07-29T04:32:13;4.30;;;3.07;;
3801;SDS011;1916;51.798;12.246;2023-07-29T04:34:18;4.60;;;3.10;;
3801;SDS011;1916;51.798;12.246;2023-07-29T04:36:20;3.40;;;3.10;;
3801;SDS011;1916;51.798;12.246;2023-07-29T04:38:26;4.33;;;3.43;;
3801;SDS011;1916;51.798;12.246;2023-07-29T04:40:33;2.77;;;2.47;;
3801;SDS011;1916;51.798;12.246;2023-07-29T04:42:36;2.90;;;2.67;;
3801;SDS011;1916;51.798;12.246;2023-07-29T04:44:38;3.00;;;2.70;;
3801;SDS011;1916;51.798;12.246;2023-07-29T04:46:41;2.93;;;2.73;;
3801;SDS011;1916;51.798;12.246;2023-07-29T04:48:43;3.20;;;2.87;;
3801;SDS011;1916;51.798;12.246;2023-07-29T04:50:45;4.83;;;2.57;;
3801;SDS011;1916;51.798;12.246;2023-07-29T04:52:48;2.57;;;2.37;;
3801;SDS011;1916;51.798;12.246;2023-07-29T04:54:50;2.67;;;2.47;;
3801;SDS011;1916;51.798;12.246;2023-07-29T04:56:53;2.73;;;2.20;;
3801;SDS011;1916;51.798;12.246;2023-07-29T04:58:55;3.93;;;2.50;;
3801;SDS011;1916;51.798;12.246;2023-07-29T05:00:57;2.70;;;2.50;;
3801;SDS011;1916;51.798;12.246;2023-07-29T05:02:59;3.20;;;2.57;;
3801;SDS011;1916;51.798;12.246;2023-07-29T05:05:03;2.83;;;2.63;;
3801;SDS011;1916;51.798;12.246;2023-07-29T05:07:05;2.73;;;2.53;;
3801;SDS011;1916;51.798;12.246;2023-07-29T05:09:17;2.67;;;2.47;;
3801;SDS011;1916;51.798;12.246;2023-07-29T05:11:20;4.10;;;2.70;;
3801;SDS011;1916;51.798;12.246;2023-07-29T05:13:23;3.70;;;2.33;;
3801;SDS011;1916;51.798;12.246;2023-07-29T05:15:25;2.53;;;2.20;;
3801;SDS011;1916;51.798;12.246;2023-07-29T05:17:28;2.30;;;2.10;;
3801;SDS011;1916;51.798;12.246;2023-07-29T05:19:30;2.43;;;2.23;;
3801;SDS011;1916;51.798;12.246;2023-07-29T05:21:32;3.80;;;2.50;;
3801;SDS011;1916;51.798;12.246;2023-07-29T05:23:35;3.93;;;2.10;;
3801;SDS011;1916;51.798;12.246;2023-07-29T05:25:37;2.53;;;2.10;;
3801;SDS011;1916;51.798;12.246;2023-07-29T05:27:40;2.40;;;2.23;;
3801;SDS011;1916;51.798;12.246;2023-07-29T05:29:42;3.00;;;1.87;;
3801;SDS011;1916;51.798;12.246;2023-07-29T05:31:44;1.80;;;1.70;;
3801;SDS011;1916;51.798;12.246;2023-07-29T05:33:46;2.13;;;1.93;;
3801;SDS011;1916;51.798;12.246;2023-07-29T05:35:48;1.60;;;1.50;;
3801;SDS011;1916;51.798;12.246;2023-07-29T05:37:51;1.90;;;1.80;;
3801;SDS011;1916;51.798;12.246;2023-07-29T05:39:53;2.20;;;2.00;;
3801;SDS011;1916;51.798;12.246;2023-07-29T05:41:55;2.30;;;2.10;;
3801;SDS011;1916;51.798;12.246;2023-07-29T05:43:57;2.37;;;2.17;;
3801;SDS011;1916;51.798;12.246;2023-07-29T05:45:59;1.77;;;1.67;;
3801;SDS011;1916;51.798;12.246;2023-07-29T05:48:02;2.00;;;1.70;;
3801;SDS011;1916;51.798;12.246;2023-07-29T05:50:04;1.80;;;1.70;;
3801;SDS011;1916;51.798;12.246;2023-07-29T05:52:07;1.70;;;1.60;;
3801;SDS011;1916;51.798;12.246;2023-07-29T05:54:09;2.47;;;2.10;;
3801;SDS011;1916;51.798;12.246;2023-07-29T05:56:12;1.70;;;1.60;;
3801;SDS011;1916;51.798;12.246;2023-07-29T05:58:14;1.67;;;1.57;;
3801;SDS011;1916;51.798;12.246;2023-07-29T06:00:16;1.83;;;1.70;;
3801;SDS011;1916;51.798;12.246;2023-07-29T06:02:18;1.90;;;1.70;;
3801;SDS011;1916;51.798;12.246;2023-07-29T06:04:21;1.90;;;1.80;;
3801;SDS011;1916;51.798;12.246;2023-07-29T06:06:23;1.77;;;1.67;;
3801;SDS011;1916;51.798;12.246;2023-07-29T06:08:25;1.90;;;1.70;;
3801;SDS011;1916;51.798;12.246;2023-07-29T06:10:30;1.77;;;1.67;;
3801;SDS011;1916;51.798;12.246;2023-07-29T06:12:32;3.27;;;1.60;;
3801;SDS011;1916;51.798;12.246;2023-07-29T06:14:34;3.10;;;1.80;;
3801;SDS011;1916;51.798;12.246;2023-07-29T06:16:36;1.90;;;1.80;;
3801;SDS011;1916;51.798;12.246;2023-07-29T06:18:39;1.90;;;1.80;;
3801;SDS011;1916;51.798;12.246;2023-07-29T06:20:41;1.60;;;1.50;;
3801;SDS011;1916;51.798;12.246;2023-07-29T06:22:43;2.60;;;1.77;;
3801;SDS011;1916;51.798;12.246;2023-07-29T06:24:45;1.73;;;1.60;;
3801;SDS011;1916;51.798;12.246;2023-07-29T06:26:47;2.50;;;1.70;;
3801;SDS011;1916;51.798;12.246;2023-07-29T06:28:49;1.90;;;1.80;;
3801;SDS011;1916;51.798;12.246;2023-07-29T06:30:52;1.63;;;1.53;;
3801;SDS011;1916;51.798;12.246;2023-07-29T06:32:54;1.80;;;1.70;;
3801;SDS011;1916;51.798;12.246;2023-07-29T06:34:56;2.13;;;1.70;;
3801;SDS011;1916;51.798;12.246;2023-07-29T06:36:58;2.30;;;2.10;;
3801;SDS011;1916;51.798;12.246;2023-07-29T06:39:00;1.80;;;1.70;;
3801;SDS011;1916;51.798;12.246;2023-07-29T06:41:03;1.67;;;1.57;;
3801;SDS011;1916;51.798;12.246;2023-07-29T06:43:05;1.93;;;1.70;;
3801;SDS011;1916;51.798;12.246;2023-07-29T06:45:07;2.83;;;1.40;;
3801;SDS011;1916;51.798;12.246;2023-07-29T06:47:10;1.97;;;1.77;;
3801;SDS011;1916;51.798;12.246;2023-07-29T06:49:12;1.80;;;1.70;;
3801;SDS011;1916;51.798;12.246;2023-07-29T06:51:14;1.93;;;1.83;;
3801;SDS011;1916;51.798;12.246;2023-07-29T06:53:16;2.90;;;1.60;;
3801;SDS011;1916;51.798;12.246;2023-07-29T06:55:18;1.80;;;1.70;;
3801;SDS011;1916;51.798;12.246;2023-07-29T06:57:20;1.63;;;1.53;;
3801;SDS011;1916;51.798;12.246;2023-07-29T06:59:23;1.90;;;1.70;;
3801;SDS011;1916;51.798;12.246;2023-07-29T07:01:26;1.70;;;1.60;;
3801;SDS011;1916;51.798;12.246;2023-07-29T07:03:28;1.60;;;1.50;;
3801;SDS011;1916;51.798;12.246;2023-07-29T07:05:30;1.63;;;1.43;;
3801;SDS011;1916;51.798;12.246;2023-07-29T07:07:32;1.93;;;1.63;;
3801;SDS011;1916;51.798;12.246;2023-07-29T07:09:35;1.57;;;1.47;;
3801;SDS011;1916;51.798;12.246;2023-07-29T07:11:37;1.60;;;1.50;;
3801;SDS011;1916;51.798;12.246;2023-07-29T07:13:39;1.93;;;1.70;;
3801;SDS011;1916;51.798;12.246;2023-07-29T07:15:41;1.63;;;1.53;;
3801;SDS011;1916;51.798;12.246;2023-07-29T07:17:43;2.47;;;1.53;;
3801;SDS011;1916;51.798;12.246;2023-07-29T07:19:45;1.70;;;1.60;;
3801;SDS011;1916;51.798;12.246;2023-07-29T07:21:48;1.57;;;1.47;;
3801;SDS011;1916;51.798;12.246;2023-07-29T07:23:50;2.57;;;1.43;;
3801;SDS011;1916;51.798;12.246;2023-07-29T07:25:52;1.80;;;1.70;;
3801;SDS011;1916;51.798;12.246;2023-07-29T07:27:54;1.60;;;1.50;;
3801;SDS011;1916;51.798;12.246;2023-07-29T07:29:56;1.60;;;1.50;;
3801;SDS011;1916;51.798;12.246;2023-07-29T07:31:58;2.70;;;1.63;;
3801;SDS011;1916;51.798;12.246;2023-07-29T07:34:01;1.70;;;1.60;;
3801;SDS011;1916;51.798;12.246;2023-07-29T07:36:26;1.43;;;1.33;;
3801;SDS011;1916;51.798;12.246;2023-07-29T07:38:28;1.47;;;1.37;;
3801;SDS011;1916;51.798;12.246;2023-07-29T07:40:31;1.40;;;1.30;;
3801;SDS011;1916;51.798;12.246;2023-07-29T07:42:33;2.40;;;1.57;;
3801;SDS011;1916;51.798;12.246;2023-07-29T07:44:35;2.00;;;1.60;;
3801;SDS011;1916;51.798;12.246;2023-07-29T07:46:37;1.40;;;1.30;;
3801;SDS011;1916;51.798;12.246;2023-07-29T07:48:40;2.67;;;1.60;;
3801;SDS011;1916;51.798;12.246;2023-07-29T07:50:42;1.70;;;1.30;;
3801;SDS011;1916;51.798;12.246;2023-07-29T07:52:45;2.60;;;1.70;;
3801;SDS011;1916;51.798;12.246;2023-07-29T07:54:51;3.77;;;1.30;;
3801;SDS011;1916;51.798;12.246;2023-07-29T07:56:54;1.30;;;1.20;;
3801;SDS011;1916;51.798;12.246;2023-07-29T07:58:56;1.50;;;1.40;;
3801;SDS011;1916;51.798;12.246;2023-07-29T08:01:02;1.63;;;1.53;;
3801;SDS011;1916;51.798;12.246;2023-07-29T08:03:07;1.50;;;1.37;;
3801;SDS011;1916;51.798;12.246;2023-07-29T08:05:10;4.37;;;1.77;;
3801;SDS011;1916;51.798;12.246;2023-07-29T08:07:12;2.70;;;1.43;;
3801;SDS011;1916;51.798;12.246;2023-07-29T08:09:15;1.47;;;1.37;;
3801;SDS011;1916;51.798;12.246;2023-07-29T08:11:17;2.00;;;1.50;;
3801;SDS011;1916;51.798;12.246;2023-07-29T08:13:19;2.67;;;1.50;;
3801;SDS011;1916;51.798;12.246;2023-07-29T08:15:21;1.70;;;1.60;;
3801;SDS011;1916;51.798;12.246;2023-07-29T08:17:24;1.80;;;1.70;;
3801;SDS011;1916;51.798;12.246;2023-07-29T08:19:26;1.87;;;1.60;;
3801;SDS011;1916;51.798;12.246;2023-07-29T08:21:28;1.50;;;1.40;;
3801;SDS011;1916;51.798;12.246;2023-07-29T08:23:31;1.60;;;1.50;;
3801;SDS011;1916;51.798;12.246;2023-07-29T08:25:34;2.67;;;1.60;;
3801;SDS011;1916;51.798;12.246;2023-07-29T08:27:37;3.40;;;1.53;;
3801;SDS011;1916;51.798;12.246;2023-07-29T08:29:39;18.20;;;1.90;;
3801;SDS011;1916;51.798;12.246;2023-07-29T08:31:41;1.73;;;1.63;;
3801;SDS011;1916;51.798;12.246;2023-07-29T08:33:43;4.23;;;1.90;;
3801;SDS011;1916;51.798;12.246;2023-07-29T08:35:45;1.80;;;1.70;;
3801;SDS011;1916;51.798;12.246;2023-07-29T08:37:47;3.60;;;2.33;;
3801;SDS011;1916;51.798;12.246;2023-07-29T08:39:49;1.90;;;1.80;;
3801;SDS011;1916;51.798;12.246;2023-07-29T08:42:01;2.33;;;1.60;;
3801;SDS011;1916;51.798;12.246;2023-07-29T08:46:26;2.27;;;2.07;;
3801;SDS011;1916;51.798;12.246;2023-07-29T08:48:29;1.80;;;1.70;;
3801;SDS011;1916;51.798;12.246;2023-07-29T08:50:38;1.70;;;1.60;;
3801;SDS011;1916;51.798;12.246;2023-07-29T08:52:41;2.00;;;1.80;;
3801;SDS011;1916;51.798;12.246;2023-07-29T08:54:44;1.77;;;1.67;;
3801;SDS011;1916;51.798;12.246;2023-07-29T08:56:47;1.70;;;1.60;;
3801;SDS011;1916;51.798;12.246;2023-07-29T08:58:49;1.60;;;1.50;;
3801;SDS011;1916;51.798;12.246;2023-07-29T09:00:51;1.63;;;1.53;;
3801;SDS011;1916;51.798;12.246;2023-07-29T09:02:54;1.80;;;1.70;;
3801;SDS011;1916;51.798;12.246;2023-07-29T09:04:57;1.87;;;1.77;;
3801;SDS011;1916;51.798;12.246;2023-07-29T09:06:59;4.03;;;1.43;;
3801;SDS011;1916;51.798;12.246;2023-07-29T09:09:02;2.07;;;1.90;;
3801;SDS011;1916;51.798;12.246;2023-07-29T09:11:04;1.60;;;1.50;;
3801;SDS011;1916;51.798;12.246;2023-07-29T09:13:07;1.80;;;1.70;;
3801;SDS011;1916;51.798;12.246;2023-07-29T09:15:09;1.80;;;1.70;;
3801;SDS011;1916;51.798;12.246;2023-07-29T09:17:11;2.03;;;1.63;;
3801;SDS011;1916;51.798;12.246;2023-07-29T09:19:14;2.57;;;1.97;;
3801;SDS011;1916;51.798;12.246;2023-07-29T09:21:23;2.77;;;1.70;;
3801;SDS011;1916;51.798;12.246;2023-07-29T09:23:25;1.83;;;1.73;;
3801;SDS011;1916;51.798;12.246;2023-07-29T09:25:29;2.03;;;1.83;;
3801;SDS011;1916;51.798;12.246;2023-07-29T09:27:31;1.87;;;1.70;;
3801;SDS011;1916;51.798;12.246;2023-07-29T09:29:35;1.80;;;1.70;;
3801;SDS011;1916;51.798;12.246;2023-07-29T09:31:37;2.30;;;2.10;;
3801;SDS011;1916;51.798;12.246;2023-07-29T09:33:39;2.53;;;1.60;;
3801;SDS011;1916;51.798;12.246;2023-07-29T09:35:42;2.27;;;1.80;;
3801;SDS011;1916;51.798;12.246;2023-07-29T09:37:46;2.00;;;1.80;;
3801;SDS011;1916;51.798;12.246;2023-07-29T09:39:49;1.70;;;1.60;;
3801;SDS011;1916;51.798;12.246;2023-07-29T09:41:52;2.10;;;1.90;;
3801;SDS011;1916;51.798;12.246;2023-07-29T09:43:58;1.80;;;1.70;;
3801;SDS011;1916;51.798;12.246;2023-07-29T09:46:01;1.83;;;1.70;;
3801;SDS011;1916;51.798;12.246;2023-07-29T09:48:05;1.60;;;1.50;;
3801;SDS011;1916;51.798;12.246;2023-07-29T09:50:11;2.23;;;1.70;;
3801;SDS011;1916;51.798;12.246;2023-07-29T09:52:16;1.73;;;1.63;;
3801;SDS011;1916;51.798;12.246;2023-07-29T09:54:19;1.60;;;1.50;;
3801;SDS011;1916;51.798;12.246;2023-07-29T09:56:26;1.70;;;1.60;;
3801;SDS011;1916;51.798;12.246;2023-07-29T09:58:28;1.70;;;1.60;;
3801;SDS011;1916;51.798;12.246;2023-07-29T10:00:31;1.63;;;1.53;;
3801;SDS011;1916;51.798;12.246;2023-07-29T10:02:33;2.47;;;1.40;;
3801;SDS011;1916;51.798;12.246;2023-07-29T10:04:35;4.20;;;1.50;;
3801;SDS011;1916;51.798;12.246;2023-07-29T10:06:37;1.70;;;1.60;;
3801;SDS011;1916;51.798;12.246;2023-07-29T10:08:40;1.60;;;1.50;;
3801;SDS011;1916;51.798;12.246;2023-07-29T10:10:43;2.20;;;1.40;;
3801;SDS011;1916;51.798;12.246;2023-07-29T10:12:46;2.57;;;1.60;;
3801;SDS011;1916;51.798;12.246;2023-07-29T10:14:49;1.67;;;1.50;;
3801;SDS011;1916;51.798;12.246;2023-07-29T10:16:51;1.97;;;1.67;;
3801;SDS011;1916;51.798;12.246;2023-07-29T10:18:53;1.63;;;1.53;;
3801;SDS011;1916;51.798;12.246;2023-07-29T10:20:56;3.23;;;1.87;;
3801;SDS011;1916;51.798;12.246;2023-07-29T10:22:59;3.73;;;1.40;;
3801;SDS011;1916;51.798;12.246;2023-07-29T10:25:21;2.27;;;1.83;;
3801;SDS011;1916;51.798;12.246;2023-07-29T10:27:24;3.37;;;1.50;;
3801;SDS011;1916;51.798;12.246;2023-07-29T10:29:30;1.50;;;1.40;;
3801;SDS011;1916;51.798;12.246;2023-07-29T10:31:36;1.50;;;1.40;;
3801;SDS011;1916;51.798;12.246;2023-07-29T10:33:39;2.70;;;1.40;;
3801;SDS011;1916;51.798;12.246;2023-07-29T10:35:41;1.43;;;1.10;;
3801;SDS011;1916;51.798;12.246;2023-07-29T10:37:44;1.20;;;1.10;;
3801;SDS011;1916;51.798;12.246;2023-07-29T10:39:54;1.40;;;1.30;;
3801;SDS011;1916;51.798;12.246;2023-07-29T10:41:57;1.57;;;1.27;;
3801;SDS011;1916;51.798;12.246;2023-07-29T10:44:00;1.80;;;1.33;;
3801;SDS011;1916;51.798;12.246;2023-07-29T10:50:34;1.80;;;1.30;;
3801;SDS011;1916;51.798;12.246;2023-07-29T10:54:42;2.40;;;1.30;;
3801;SDS011;1916;51.798;12.246;2023-07-29T10:56:49;1.47;;;1.37;;
3801;SDS011;1916;51.798;12.246;2023-07-29T10:58:51;16.30;;;2.30;;
3801;SDS011;1916;51.798;12.246;2023-07-29T11:00:53;1.70;;;1.23;;
3801;SDS011;1916;51.798;12.246;2023-07-29T11:02:58;3.87;;;1.57;;
3801;SDS011;1916;51.798;12.246;2023-07-29T11:05:15;1.83;;;1.40;;
3801;SDS011;1916;51.798;12.246;2023-07-29T11:07:19;2.17;;;1.60;;
3801;SDS011;1916;51.798;12.246;2023-07-29T11:12:04;2.80;;;1.37;;
3801;SDS011;1916;51.798;12.246;2023-07-29T11:14:07;2.47;;;1.20;;
3801;SDS011;1916;51.798;12.246;2023-07-29T11:16:10;1.70;;;1.50;;
3801;SDS011;1916;51.798;12.246;2023-07-29T11:18:12;3.47;;;1.33;;
3801;SDS011;1916;51.798;12.246;2023-07-29T11:20:18;1.30;;;1.07;;
3801;SDS011;1916;51.798;12.246;2023-07-29T11:22:21;2.80;;;1.40;;
3801;SDS011;1916;51.798;12.246;2023-07-29T11:24:23;2.27;;;1.20;;
3801;SDS011;1916;51.798;12.246;2023-07-29T11:26:26;1.50;;;1.27;;
3801;SDS011;1916;51.798;12.246;2023-07-29T11:28:29;2.50;;;1.23;;
3801;SDS011;1916;51.798;12.246;2023-07-29T11:30:36;1.50;;;1.40;;
3801;SDS011;1916;51.798;12.246;2023-07-29T11:32:42;1.10;;;1.00;;
3801;SDS011;1916;51.798;12.246;2023-07-29T11:34:46;1.90;;;1.20;;
3801;SDS011;1916;51.798;12.246;2023-07-29T11:36:48;1.43;;;1.20;;
3801;SDS011;1916;51.798;12.246;2023-07-29T11:38:50;1.67;;;1.20;;
3801;SDS011;1916;51.798;12.246;2023-07-29T11:40:59;2.90;;;1.30;;
3801;SDS011;1916;51.798;12.246;2023-07-29T11:43:02;2.33;;;2.00;;
3801;SDS011;1916;51.798;12.246;2023-07-29T11:45:05;1.67;;;1.20;;
3801;SDS011;1916;51.798;12.246;2023-07-29T11:47:11;1.60;;;1.50;;
3801;SDS011;1916;51.798;12.246;2023-07-29T11:49:14;1.77;;;1.27;;
3801;SDS011;1916;51.798;12.246;2023-07-29T11:51:17;1.90;;;1.37;;
3801;SDS011;1916;51.798;12.246;2023-07-29T11:53:19;4.30;;;1.70;;
3801;SDS011;1916;51.798;12.246;2023-07-29T11:55:21;2.13;;;1.40;;
3801;SDS011;1916;51.798;12.246;2023-07-29T11:57:23;1.40;;;1.30;;
3801;SDS011;1916;51.798;12.246;2023-07-29T11:59:27;10.03;;;2.60;;
3801;SDS011;1916;51.798;12.246;2023-07-29T12:01:30;5.10;;;1.80;;
3801;SDS011;1916;51.798;12.246;2023-07-29T12:03:32;2.90;;;1.57;;
3801;SDS011;1916;51.798;12.246;2023-07-29T12:05:35;6.57;;;2.00;;
3801;SDS011;1916;51.798;12.246;2023-07-29T12:07:41;3.57;;;1.50;;
3801;SDS011;1916;51.798;12.246;2023-07-29T12:09:44;4.73;;;1.93;;
3801;SDS011;1916;51.798;12.246;2023-07-29T12:11:47;7.70;;;1.90;;
3801;SDS011;1916;51.798;12.246;2023-07-29T12:13:49;3.23;;;1.50;;
3801;SDS011;1916;51.798;12.246;2023-07-29T12:15:52;2.00;;;1.30;;
3801;SDS011;1916;51.798;12.246;2023-07-29T12:17:56;2.47;;;1.70;;
3801;SDS011;1916;51.798;12.246;2023-07-29T12:19:59;2.37;;;1.70;;
3801;SDS011;1916;51.798;12.246;2023-07-29T12:22:02;1.90;;;1.70;;
3801;SDS011;1916;51.798;12.246;2023-07-29T12:24:05;2.73;;;2.00;;
3801;SDS011;1916;51.798;12.246;2023-07-29T12:26:07;5.50;;;1.57;;
3801;SDS011;1916;51.798;12.246;2023-07-29T12:28:10;3.00;;;1.50;;
3801;SDS011;1916;51.798;12.246;2023-07-29T12:30:12;4.83;;;1.80;;
3801;SDS011;1916;51.798;12.246;2023-07-29T12:32:14;3.90;;;1.37;;
3801;SDS011;1916;51.798;12.246;2023-07-29T12:34:20;3.10;;;1.53;;
3801;SDS011;1916;51.798;12.246;2023-07-29T12:36:27;2.30;;;1.40;;
3801;SDS011;1916;51.798;12.246;2023-07-29T12:38:42;2.13;;;1.40;;
3801;SDS011;1916;51.798;12.246;2023-07-29T12:40:46;2.23;;;2.03;;
3801;SDS011;1916;51.798;12.246;2023-07-29T12:42:48;1.53;;;1.43;;
3801;SDS011;1916;51.798;12.246;2023-07-29T12:44:52;1.70;;;1.20;;
3801;SDS011;1916;51.798;12.246;2023-07-29T12:46:54;2.00;;;1.40;;
3801;SDS011;1916;51.798;12.246;2023-07-29T12:48:56;2.10;;;1.60;;
3801;SDS011;1916;51.798;12.246;2023-07-29T12:50:59;1.60;;;1.50;;
3801;SDS011;1916;51.798;12.246;2023-07-29T12:53:01;2.40;;;1.40;;